createdAt,value
2017-08-18T00:01:10.361Z,19.90
2017-08-18T00:03:38.656Z,19.80
2017-08-18T00:06:06.594Z,19.90
2017-08-18T00:08:34.100Z,19.80
2017-08-18T00:11:02.087Z,19.70
2017-08-18T00:13:33.635Z,19.70
2017-08-18T00:16:01.152Z,19.70
2017-08-18T00:18:28.736Z,19.60
2017-08-18T00:20:57.071Z,19.60
2017-08-18T00:23:24.677Z,19.60
2017-08-18T00:25:55.330Z,19.50
2017-08-18T00:28:22.838Z,19.60
2017-08-18T00:30:50.376Z,19.50
2017-08-18T00:33:18.194Z,19.50
2017-08-18T00:35:46.607Z,19.60
2017-08-18T00:38:14.115Z,19.70
2017-08-18T00:40:41.676Z,19.90
2017-08-18T00:43:09.192Z,20.00
2017-08-18T00:45:37.512Z,20.00
2017-08-18T00:48:05.700Z,20.00
2017-08-18T00:50:33.215Z,19.90
2017-08-18T00:53:01.561Z,19.70
2017-08-18T00:55:29.856Z,19.70
2017-08-18T00:57:57.367Z,19.60
2017-08-18T01:00:24.880Z,19.60
2017-08-18T01:02:53.208Z,19.50
2017-08-18T01:05:20.713Z,19.50
2017-08-18T01:07:48.270Z,19.40
2017-08-18T01:10:15.811Z,19.30
2017-08-18T01:12:48.055Z,19.00
2017-08-18T01:15:15.700Z,19.00
2017-08-18T01:17:43.215Z,18.90
2017-08-18T01:20:10.724Z,18.90
2017-08-18T01:22:38.862Z,18.80
2017-08-18T01:25:06.443Z,18.90
2017-08-18T01:27:33.951Z,18.90
2017-08-18T01:30:01.709Z,18.90
2017-08-18T01:32:29.379Z,18.90
2017-08-18T01:34:57.803Z,18.80
2017-08-18T01:37:25.394Z,18.80
2017-08-18T01:39:52.910Z,18.90
2017-08-18T01:42:20.418Z,18.80
2017-08-18T01:44:47.957Z,18.80
2017-08-18T01:47:15.592Z,18.80
2017-08-18T01:49:43.100Z,18.80
2017-08-18T01:52:12.176Z,18.70
2017-08-18T01:54:39.685Z,18.70
2017-08-18T01:57:10.179Z,18.60
2017-08-18T01:59:43.304Z,18.50
2017-08-18T02:02:10.860Z,18.50
2017-08-18T02:04:38.373Z,18.40
2017-08-18T02:07:06.850Z,18.30
2017-08-18T02:09:34.771Z,18.30
2017-08-18T02:12:02.299Z,18.30
2017-08-18T02:14:29.814Z,18.30
2017-08-18T02:17:01.786Z,18.30
2017-08-18T02:19:29.295Z,18.30
2017-08-18T02:21:57.023Z,18.30
2017-08-18T02:24:25.028Z,18.40
2017-08-18T02:26:52.541Z,18.40
2017-08-18T02:29:20.916Z,18.40
2017-08-18T02:31:48.589Z,18.30
2017-08-18T02:34:16.135Z,18.30
2017-08-18T02:36:43.644Z,18.30
2017-08-18T02:39:11.772Z,18.20
2017-08-18T02:41:41.184Z,18.20
2017-08-18T02:44:08.848Z,18.20
2017-08-18T02:46:36.464Z,18.20
2017-08-18T02:49:04.800Z,18.20
2017-08-18T02:51:32.313Z,18.30
2017-08-18T02:53:59.823Z,18.30
2017-08-18T02:56:27.372Z,18.30
2017-08-18T02:58:59.395Z,18.30
2017-08-18T03:01:27.671Z,18.30
2017-08-18T03:03:55.183Z,18.30
2017-08-18T03:06:22.780Z,18.40
2017-08-18T03:08:50.301Z,18.40
2017-08-18T03:11:17.810Z,18.30
2017-08-18T03:13:45.327Z,18.30
2017-08-18T03:16:14.255Z,18.20
2017-08-18T03:18:42.037Z,18.20
2017-08-18T03:21:09.815Z,18.20
2017-08-18T03:23:38.050Z,18.20
2017-08-18T03:26:05.560Z,18.20
2017-08-18T03:28:33.092Z,18.10
2017-08-18T03:31:00.610Z,18.20
2017-08-18T03:33:28.120Z,18.20
2017-08-18T03:35:55.666Z,18.20
2017-08-18T03:38:23.183Z,18.10
2017-08-18T03:40:50.799Z,18.00
2017-08-18T03:43:18.379Z,18.00
2017-08-18T03:45:50.526Z,18.00
2017-08-18T03:48:18.063Z,18.00
2017-08-18T03:50:46.362Z,18.00
2017-08-18T03:53:13.975Z,17.90
2017-08-18T03:55:42.214Z,18.00
2017-08-18T03:58:11.498Z,17.90
2017-08-18T04:00:39.080Z,17.90
2017-08-18T04:03:06.595Z,17.90
2017-08-18T04:05:34.148Z,17.90
2017-08-18T04:08:01.683Z,17.90
2017-08-18T04:10:29.283Z,17.80
2017-08-18T04:12:56.803Z,17.80
2017-08-18T04:15:27.984Z,17.80
2017-08-18T04:17:55.763Z,17.70
2017-08-18T04:20:23.819Z,17.80
2017-08-18T04:22:51.330Z,17.90
2017-08-18T04:25:19.497Z,17.80
2017-08-18T04:27:47.117Z,17.70
2017-08-18T04:30:14.672Z,17.80
2017-08-18T04:32:42.190Z,17.90
2017-08-18T04:35:09.717Z,18.00
2017-08-18T04:37:37.240Z,18.00
2017-08-18T04:40:04.783Z,18.00
2017-08-18T04:42:33.987Z,18.20
2017-08-18T04:45:05.027Z,18.20
2017-08-18T04:47:32.543Z,18.30
2017-08-18T04:50:00.063Z,18.40
2017-08-18T04:52:28.561Z,18.40
2017-08-18T04:54:56.077Z,18.40
2017-08-18T04:57:23.595Z,18.50
2017-08-18T04:59:51.103Z,18.60
2017-08-18T05:02:19.348Z,19.00
2017-08-18T05:04:47.580Z,19.50
2017-08-18T05:07:15.115Z,20.00
2017-08-18T05:09:42.666Z,20.40
2017-08-18T05:12:10.175Z,20.80
2017-08-18T05:14:37.818Z,21.30
2017-08-18T05:17:05.419Z,21.70
2017-08-18T05:19:32.988Z,22.30
2017-08-18T05:22:01.228Z,22.80
2017-08-18T05:24:28.788Z,23.30
2017-08-18T05:26:56.319Z,23.70
2017-08-18T05:29:23.841Z,24.00
2017-08-18T05:31:51.352Z,24.10
2017-08-18T05:34:18.863Z,24.50
2017-08-18T05:36:46.591Z,25.00
2017-08-18T05:39:15.081Z,25.20
2017-08-18T05:41:43.091Z,25.50
2017-08-18T05:44:10.666Z,25.80
2017-08-18T05:46:38.209Z,26.10
2017-08-18T05:49:05.720Z,26.50
2017-08-18T05:51:34.088Z,26.60
2017-08-18T05:54:01.621Z,26.50
2017-08-18T05:56:29.182Z,26.80
2017-08-18T05:58:56.719Z,27.10
2017-08-18T06:01:24.243Z,27.20
2017-08-18T06:03:51.768Z,27.40
2017-08-18T06:06:19.355Z,27.30
2017-08-18T06:08:47.548Z,27.10
2017-08-18T06:11:15.395Z,26.60
2017-08-18T06:13:43.854Z,24.90
2017-08-18T06:16:11.393Z,24.80
2017-08-18T06:18:38.916Z,24.20
2017-08-18T06:21:07.125Z,23.80
2017-08-18T06:23:34.809Z,23.50
2017-08-18T06:26:02.344Z,23.40
2017-08-18T06:28:30.007Z,23.20
2017-08-18T06:30:57.559Z,23.20
2017-08-18T06:33:25.071Z,23.20
2017-08-18T06:35:53.271Z,23.20
2017-08-18T06:38:20.823Z,23.20
2017-08-18T06:40:48.399Z,23.30
2017-08-18T06:43:16.288Z,23.60
2017-08-18T06:45:43.799Z,23.90
2017-08-18T06:48:15.327Z,24.20
2017-08-18T06:50:42.892Z,24.50
2017-08-18T06:53:10.423Z,24.80
2017-08-18T06:55:37.932Z,24.90
2017-08-18T06:58:05.469Z,24.90
2017-08-18T07:00:33.029Z,24.90
2017-08-18T07:03:00.543Z,25.00
2017-08-18T07:05:28.791Z,25.10
2017-08-18T07:07:56.330Z,25.20
2017-08-18T07:10:23.840Z,25.40
2017-08-18T07:12:51.621Z,25.40
2017-08-18T07:15:19.386Z,25.50
2017-08-18T07:17:50.535Z,25.50
2017-08-18T07:20:22.052Z,25.70
2017-08-18T07:22:49.570Z,25.80
2017-08-18T07:25:17.067Z,25.80
2017-08-18T07:27:44.611Z,25.90
2017-08-18T07:30:13.128Z,26.00
2017-08-18T07:32:40.638Z,26.00
2017-08-18T07:35:08.177Z,25.80
2017-08-18T07:37:35.706Z,25.70
2017-08-18T07:40:03.284Z,25.50
2017-08-18T07:42:30.928Z,25.30
2017-08-18T07:44:58.464Z,25.30
2017-08-18T07:47:26.906Z,25.30
2017-08-18T07:49:54.452Z,25.40
2017-08-18T07:52:21.992Z,25.50
2017-08-18T07:54:49.748Z,25.60
2017-08-18T07:57:17.515Z,25.70
2017-08-18T07:59:45.047Z,25.80
2017-08-18T08:02:13.362Z,26.10
2017-08-18T08:04:40.899Z,26.10
2017-08-18T08:07:08.451Z,26.10
2017-08-18T08:09:35.955Z,26.10
2017-08-18T08:12:03.815Z,26.10
2017-08-18T08:14:31.343Z,26.20
2017-08-18T08:16:59.769Z,26.30
2017-08-18T08:19:27.353Z,26.50
2017-08-18T08:21:55.075Z,26.80
2017-08-18T08:24:22.655Z,27.00
2017-08-18T08:26:50.215Z,27.30
2017-08-18T08:29:18.704Z,27.80
2017-08-18T08:31:46.208Z,28.10
2017-08-18T08:34:13.716Z,28.40
2017-08-18T08:36:41.220Z,28.60
2017-08-18T08:39:09.803Z,28.80
2017-08-18T08:41:38.307Z,28.80
2017-08-18T08:44:05.967Z,28.50
2017-08-18T08:46:33.503Z,28.40
2017-08-18T08:49:01.011Z,28.40
2017-08-18T08:51:28.675Z,28.40
2017-08-18T08:53:56.238Z,28.40
2017-08-18T08:56:23.799Z,28.60
2017-08-18T08:58:51.655Z,28.90
2017-08-18T09:01:19.162Z,29.00
2017-08-18T09:03:46.795Z,28.90
2017-08-18T09:06:14.308Z,29.00
2017-08-18T09:08:41.812Z,29.10
2017-08-18T09:11:09.427Z,29.20
2017-08-18T09:13:37.240Z,29.20
2017-08-18T09:16:05.160Z,29.30
2017-08-18T09:18:33.099Z,29.40
2017-08-18T09:21:00.607Z,29.40
2017-08-18T09:23:28.285Z,29.40
2017-08-18T09:25:56.100Z,29.20
2017-08-18T09:28:24.779Z,29.10
2017-08-18T09:30:52.295Z,29.00
2017-08-18T09:33:19.805Z,29.00
2017-08-18T09:35:50.552Z,29.10
2017-08-18T09:38:18.288Z,29.20
2017-08-18T09:40:45.802Z,29.40
2017-08-18T09:43:13.879Z,29.50
2017-08-18T09:45:41.387Z,29.70
2017-08-18T09:48:20.807Z,30.00
2017-08-18T09:51:00.964Z,30.10
2017-08-18T09:56:42.355Z,30.10
2017-08-18T09:59:10.788Z,30.20
2017-08-18T10:01:38.326Z,30.30
2017-08-18T10:04:05.843Z,30.20
2017-08-18T10:06:34.314Z,30.10
2017-08-18T10:09:01.820Z,29.90
2017-08-18T10:11:29.369Z,29.80
2017-08-18T10:13:56.872Z,29.70
2017-08-18T10:16:24.525Z,29.70
2017-08-18T10:18:52.277Z,29.70
2017-08-18T10:21:19.783Z,29.80
2017-08-18T10:23:47.761Z,29.90
2017-08-18T10:26:15.695Z,30.00
2017-08-18T10:28:43.200Z,30.20
2017-08-18T10:31:10.736Z,30.30
2017-08-18T10:33:38.354Z,30.20
2017-08-18T10:36:06.646Z,30.10
2017-08-18T10:38:34.319Z,29.90
2017-08-18T10:41:01.843Z,29.60
2017-08-18T10:43:29.347Z,29.40
2017-08-18T10:45:56.863Z,29.30
2017-08-18T10:48:24.368Z,29.10
2017-08-18T10:50:51.951Z,29.00
2017-08-18T10:53:19.451Z,28.90
2017-08-18T10:55:46.946Z,28.90
2017-08-18T10:58:14.979Z,28.90
2017-08-18T11:00:42.487Z,28.80
2017-08-18T11:03:09.996Z,28.80
2017-08-18T11:05:37.496Z,28.90
2017-08-18T11:08:05.104Z,29.00
2017-08-18T11:10:32.856Z,29.00
2017-08-18T11:13:00.362Z,29.10
2017-08-18T11:15:28.307Z,29.20
2017-08-18T11:17:55.821Z,29.40
2017-08-18T11:20:23.363Z,29.60
2017-08-18T11:22:51.700Z,29.90
2017-08-18T11:25:19.411Z,29.90
2017-08-18T11:27:47.766Z,30.00
2017-08-18T11:30:15.275Z,30.20
2017-08-18T11:32:42.792Z,30.40
2017-08-18T11:35:10.349Z,30.70
2017-08-18T11:37:37.851Z,30.70
2017-08-18T11:40:05.356Z,30.60
2017-08-18T11:42:32.872Z,30.40
2017-08-18T11:45:01.076Z,30.10
2017-08-18T11:47:28.689Z,29.90
2017-08-18T11:49:56.479Z,29.60
2017-08-18T11:52:23.983Z,29.40
2017-08-18T11:54:51.523Z,29.40
2017-08-18T11:57:19.024Z,29.50
2017-08-18T11:59:46.574Z,29.50
2017-08-18T12:02:15.154Z,29.60
2017-08-18T12:04:42.728Z,29.70
2017-08-18T12:07:14.811Z,30.00
2017-08-18T12:09:42.589Z,30.00
2017-08-18T12:12:10.146Z,30.00
2017-08-18T12:14:37.712Z,30.10
2017-08-18T12:17:05.231Z,30.10
2017-08-18T12:19:32.791Z,30.00
2017-08-18T12:22:01.072Z,29.90
2017-08-18T12:24:33.469Z,29.80
2017-08-18T12:27:01.147Z,29.80
2017-08-18T12:29:29.459Z,29.70
2017-08-18T12:31:57.009Z,29.60
2017-08-18T12:34:24.555Z,29.50
2017-08-18T12:36:52.090Z,29.50
2017-08-18T12:39:19.603Z,29.50
2017-08-18T12:41:47.187Z,29.40
2017-08-18T12:44:14.710Z,29.40
2017-08-18T12:46:42.229Z,29.30
2017-08-18T12:49:09.832Z,29.20
2017-08-18T12:51:37.344Z,29.30
2017-08-18T12:54:09.097Z,29.50
2017-08-18T12:56:36.594Z,29.70
2017-08-18T12:59:04.157Z,29.70
2017-08-18T13:01:32.667Z,29.80
2017-08-18T13:04:00.173Z,29.70
2017-08-18T13:06:27.685Z,29.80
2017-08-18T13:08:55.995Z,29.80
2017-08-18T13:11:23.599Z,29.70
2017-08-18T13:13:52.413Z,29.90
2017-08-18T13:16:19.917Z,29.90
2017-08-18T13:18:49.202Z,30.00
2017-08-18T13:21:17.248Z,29.90
2017-08-18T13:23:44.752Z,29.70
2017-08-18T13:26:12.264Z,29.90
2017-08-18T13:28:41.246Z,30.20
2017-08-18T13:31:09.511Z,30.70
2017-08-18T13:33:37.925Z,30.70
2017-08-18T13:36:06.592Z,30.70
2017-08-18T13:38:34.950Z,30.70
2017-08-18T13:41:02.766Z,30.70
2017-08-18T13:43:30.592Z,30.80
2017-08-18T13:45:58.913Z,30.70
2017-08-18T13:48:26.477Z,30.70
2017-08-18T13:50:55.063Z,30.60
2017-08-18T13:53:22.572Z,30.60
2017-08-18T13:55:50.847Z,30.80
2017-08-18T13:58:18.648Z,30.80
2017-08-18T14:00:46.256Z,30.80
2017-08-18T14:03:14.735Z,30.80
2017-08-18T14:05:42.818Z,31.00
2017-08-18T14:08:10.332Z,31.30
2017-08-18T14:10:38.980Z,31.50
2017-08-18T14:13:06.537Z,31.60
2017-08-18T14:15:34.047Z,31.50
2017-08-18T14:18:01.684Z,31.50
2017-08-18T14:20:29.189Z,31.50
2017-08-18T14:23:02.260Z,31.40
2017-08-18T14:25:46.891Z,31.20
2017-08-18T14:28:14.396Z,31.40
2017-08-18T14:30:41.912Z,31.50
2017-08-18T14:33:09.447Z,31.80
2017-08-18T14:35:37.231Z,32.00
2017-08-18T14:38:04.775Z,32.20
2017-08-18T14:40:32.299Z,32.20
2017-08-18T14:43:03.303Z,32.10
2017-08-18T14:45:30.811Z,32.00
2017-08-18T14:47:59.079Z,32.00
2017-08-18T14:50:26.843Z,31.90
2017-08-18T14:52:55.177Z,32.00
2017-08-18T14:55:22.684Z,31.80
2017-08-18T14:57:50.199Z,31.60
2017-08-18T15:00:19.032Z,31.30
2017-08-18T15:02:46.619Z,31.00
2017-08-18T15:05:14.388Z,30.70
2017-08-18T15:07:41.902Z,30.50
2017-08-18T15:10:09.411Z,30.20
2017-08-18T15:12:36.919Z,29.90
2017-08-18T15:15:04.429Z,29.70
2017-08-18T15:17:32.004Z,29.60
2017-08-18T15:19:59.576Z,29.40
2017-08-18T15:22:28.234Z,29.30
2017-08-18T15:24:55.785Z,29.20
2017-08-18T15:27:23.324Z,29.10
2017-08-18T15:29:50.912Z,29.00
2017-08-18T15:32:18.511Z,28.90
2017-08-18T15:34:47.259Z,28.80
2017-08-18T15:37:14.759Z,28.60
2017-08-18T15:39:42.287Z,28.40
2017-08-18T15:42:13.618Z,28.30
2017-08-18T15:44:41.744Z,28.20
2017-08-18T15:47:09.405Z,28.10
2017-08-18T15:49:37.225Z,28.00
2017-08-18T15:52:04.754Z,27.80
2017-08-18T15:54:32.287Z,27.70
2017-08-18T15:57:03.490Z,27.50
2017-08-18T15:59:31.945Z,26.70
2017-08-18T16:01:59.498Z,26.70
2017-08-18T16:04:27.338Z,26.50
2017-08-18T16:06:55.789Z,26.50
2017-08-18T16:09:23.349Z,26.30
2017-08-18T16:11:50.903Z,25.50
2017-08-18T16:14:22.852Z,24.90
2017-08-18T16:16:51.492Z,23.90
2017-08-18T16:19:19.047Z,23.90
2017-08-18T16:21:46.664Z,23.60
2017-08-18T16:24:14.211Z,23.40
2017-08-18T16:26:45.739Z,23.30
2017-08-18T16:29:13.279Z,23.20
2017-08-18T16:31:40.836Z,23.10
2017-08-18T16:34:08.355Z,23.10
2017-08-18T16:36:36.379Z,22.50
2017-08-18T16:39:03.881Z,20.40
2017-08-18T16:41:31.395Z,20.20
2017-08-18T16:43:59.515Z,20.40
2017-08-18T16:46:27.036Z,20.70
2017-08-18T16:48:54.599Z,21.00
2017-08-18T16:51:22.115Z,21.30
2017-08-18T16:53:49.663Z,21.20
2017-08-18T16:56:18.331Z,20.80
2017-08-18T16:58:45.837Z,20.20
2017-08-18T17:01:13.400Z,19.60
2017-08-18T17:03:40.951Z,19.40
2017-08-18T17:06:08.671Z,19.00
2017-08-18T17:08:36.180Z,18.70
2017-08-18T17:11:04.511Z,18.50
2017-08-18T17:13:32.985Z,18.30
2017-08-18T17:16:00.494Z,18.30
2017-08-18T17:18:28.151Z,18.20
2017-08-18T17:20:56.582Z,18.10
2017-08-18T17:23:24.089Z,18.10
2017-08-18T17:25:51.666Z,18.30
2017-08-18T17:28:23.871Z,18.30
2017-08-18T17:30:51.636Z,18.40
2017-08-18T17:33:19.131Z,18.50
2017-08-18T17:35:46.654Z,18.60
2017-08-18T17:38:14.159Z,18.80
2017-08-18T17:40:41.990Z,18.90
2017-08-18T17:43:16.743Z,18.90
2017-08-18T17:45:44.362Z,18.90
2017-08-18T17:48:12.055Z,18.90
2017-08-18T17:50:39.559Z,18.90
2017-08-18T17:53:07.151Z,18.90
2017-08-18T17:55:34.701Z,18.90
2017-08-18T17:58:05.232Z,18.90
2017-08-18T18:00:33.072Z,19.00
2017-08-18T18:03:00.691Z,18.90
2017-08-18T18:05:28.197Z,18.90
2017-08-18T18:07:55.769Z,18.80
2017-08-18T18:10:23.455Z,18.70
2017-08-18T18:12:51.144Z,18.70
2017-08-18T18:15:18.658Z,18.70
2017-08-18T18:17:46.235Z,18.60
2017-08-18T18:20:14.199Z,18.60
2017-08-18T18:22:41.997Z,18.50
2017-08-18T18:25:10.324Z,18.50
2017-08-18T18:27:38.822Z,18.50
2017-08-18T18:30:06.343Z,18.50
2017-08-18T18:32:34.236Z,18.40
2017-08-18T18:35:01.798Z,18.40
2017-08-18T18:37:29.311Z,18.40
2017-08-18T18:39:56.871Z,18.30
2017-08-18T18:42:24.420Z,18.30
2017-08-18T18:44:52.463Z,18.30
2017-08-18T18:47:20.219Z,18.20
2017-08-18T18:49:47.727Z,18.20
2017-08-18T18:52:15.240Z,18.10
2017-08-18T18:54:42.840Z,18.10
2017-08-18T18:57:10.422Z,18.10
2017-08-18T18:59:42.046Z,18.00
2017-08-18T19:02:09.591Z,18.00
2017-08-18T19:04:37.387Z,17.90
2017-08-18T19:07:04.892Z,17.90
2017-08-18T19:09:32.401Z,17.80
2017-08-18T19:12:00.831Z,17.60
2017-08-18T19:14:32.399Z,17.20
2017-08-18T19:16:59.910Z,17.00
2017-08-18T19:19:27.428Z,16.70
2017-08-18T19:21:56.827Z,16.60
2017-08-18T19:24:24.400Z,16.50
2017-08-18T19:26:51.956Z,16.40
2017-08-18T19:29:20.392Z,16.40
2017-08-18T19:31:47.931Z,16.30
2017-08-18T19:34:15.486Z,16.40
2017-08-18T19:36:42.992Z,16.50
2017-08-18T19:39:10.871Z,16.60
2017-08-18T19:41:38.707Z,16.70
2017-08-18T19:44:06.243Z,16.70
2017-08-18T19:46:34.223Z,16.70
2017-08-18T19:49:05.061Z,16.70
2017-08-18T19:51:32.672Z,16.70
2017-08-18T19:54:00.183Z,16.70
2017-08-18T19:56:27.704Z,16.70
2017-08-18T19:58:55.210Z,16.70
2017-08-18T20:01:23.496Z,16.60
2017-08-18T20:03:51.047Z,16.50
2017-08-18T20:06:18.799Z,16.50
2017-08-18T20:08:46.531Z,16.50
2017-08-18T20:11:14.083Z,16.60
2017-08-18T20:13:43.320Z,16.60
2017-08-18T20:16:10.840Z,16.50
2017-08-18T20:18:39.375Z,16.60
2017-08-18T20:21:08.416Z,16.60
2017-08-18T20:23:35.987Z,16.60
2017-08-18T20:26:03.492Z,16.60
2017-08-18T20:28:31.003Z,16.60
2017-08-18T20:31:02.285Z,16.60
2017-08-18T20:33:29.841Z,16.60
2017-08-18T20:35:57.345Z,16.60
2017-08-18T20:38:24.960Z,16.60
2017-08-18T20:40:52.496Z,16.60
2017-08-18T20:43:20.055Z,16.50
2017-08-18T20:45:51.296Z,16.60
2017-08-18T20:48:18.904Z,16.70
2017-08-18T20:50:46.423Z,16.60
2017-08-18T20:53:13.924Z,16.70
2017-08-18T20:55:41.420Z,16.70
2017-08-18T20:58:08.975Z,16.80
2017-08-18T21:00:37.412Z,16.70
2017-08-18T21:03:09.308Z,16.70
2017-08-18T21:05:36.813Z,16.70
2017-08-18T21:08:04.324Z,16.70
2017-08-18T21:10:32.651Z,16.60
2017-08-18T21:13:00.430Z,16.60
2017-08-18T21:15:27.960Z,16.80
2017-08-18T21:17:59.236Z,16.80
2017-08-18T21:20:26.777Z,16.80
2017-08-18T21:22:54.283Z,16.90
2017-08-18T21:25:21.832Z,16.90
2017-08-18T21:27:50.065Z,16.90
2017-08-18T21:30:17.581Z,16.90
2017-08-18T21:32:45.531Z,16.90
2017-08-18T21:35:18.005Z,16.90
2017-08-18T21:37:45.515Z,16.80
2017-08-18T21:40:13.444Z,16.70
2017-08-18T21:42:41.275Z,16.70
2017-08-18T21:45:09.219Z,16.70
2017-08-18T21:47:39.681Z,16.70
2017-08-18T21:50:07.192Z,16.70
2017-08-18T21:52:34.747Z,16.70
2017-08-18T21:55:02.274Z,16.80
2017-08-18T21:57:29.921Z,16.70
2017-08-18T21:59:57.440Z,16.80
2017-08-18T22:02:24.956Z,16.80
2017-08-18T22:04:58.171Z,16.80
2017-08-18T22:07:25.678Z,16.80
2017-08-18T22:09:54.012Z,16.80
2017-08-18T22:12:21.520Z,16.90
2017-08-18T22:14:49.027Z,16.70
2017-08-18T22:17:20.406Z,16.60
2017-08-18T22:19:48.518Z,16.60
2017-08-18T22:22:16.074Z,16.50
2017-08-18T22:24:43.575Z,16.30
2017-08-18T22:27:11.157Z,16.30
2017-08-18T22:29:38.723Z,16.10
2017-08-18T22:32:06.238Z,16.00
2017-08-18T22:34:33.743Z,15.90
2017-08-18T22:37:02.068Z,15.90
2017-08-18T22:39:29.576Z,15.90
2017-08-18T22:41:57.126Z,15.80
2017-08-18T22:44:24.630Z,15.90
2017-08-18T22:46:52.336Z,15.80
2017-08-18T22:49:19.843Z,15.90
2017-08-18T22:51:47.383Z,16.00
2017-08-18T22:54:15.888Z,16.00
2017-08-18T22:56:43.629Z,16.00
2017-08-18T22:59:11.147Z,15.90
2017-08-18T23:01:38.668Z,15.90
2017-08-18T23:04:10.498Z,15.80
2017-08-18T23:06:38.092Z,15.80
2017-08-18T23:09:05.761Z,15.70
2017-08-18T23:11:33.391Z,15.60
2017-08-18T23:14:01.383Z,15.60
2017-08-18T23:16:29.847Z,15.60
2017-08-18T23:19:02.230Z,15.60
2017-08-18T23:21:30.171Z,15.50
2017-08-18T23:23:57.723Z,15.40
2017-08-18T23:26:25.242Z,15.50
2017-08-18T23:28:52.782Z,15.40
2017-08-18T23:31:20.343Z,15.40
2017-08-18T23:33:47.856Z,15.40
2017-08-18T23:36:15.388Z,15.40
2017-08-18T23:38:42.936Z,15.30
2017-08-18T23:41:10.788Z,15.30
2017-08-18T23:43:38.667Z,15.30
2017-08-18T23:46:06.183Z,15.40
2017-08-18T23:48:33.719Z,15.50
2017-08-18T23:51:04.664Z,15.60
2017-08-18T23:53:32.223Z,15.90
2017-08-18T23:56:00.135Z,16.00
2017-08-18T23:58:28.007Z,16.00
